Time,TemperatureF,DewpointF,PressureIn,WindDirection,WindDirectionDegrees,WindSpeedMPH,WindSpeedGustMPH,Humidity,HourlyPrecipIn,Conditions,Clouds,dailyrainin,SoftwareType,DateUTC
2013-12-23 00:01:00,22.8,9.9,30.15,WSW,246,19.0,29.0,57,0.00,,---,0.00,VWS V14.01,2013-12-23 07:01:00,
2013-12-23 00:11:00,21.9,10.2,30.14,WSW,258,7.0,23.0,60,0.00,,---,0.00,VWS V14.01,2013-12-23 07:11:00,
2013-12-23 00:21:00,22.0,10.2,30.14,West,259,17.0,28.0,60,0.00,,---,0.00,VWS V14.01,2013-12-23 07:21:00,
2013-12-23 00:31:00,21.6,10.2,30.13,WSW,252,15.0,26.0,61,0.00,,---,0.00,VWS V14.01,2013-12-23 07:31:00,
2013-12-23 00:41:00,21.5,10.9,30.14,West,263,26.0,33.0,63,0.00,,---,0.00,VWS V14.01,2013-12-23 07:41:00,
2013-12-23 00:51:00,22.0,10.6,30.15,West,280,18.0,29.0,61,0.00,,---,0.00,VWS V14.01,2013-12-23 07:51:00,
2013-12-23 01:01:00,21.5,10.5,30.14,WSW,252,21.0,27.0,62,0.00,,---,0.00,VWS V14.01,2013-12-23 08:01:00,
2013-12-23 01:11:00,21.9,10.2,30.15,West,277,12.0,29.0,60,0.00,,---,0.00,VWS V14.01,2013-12-23 08:11:00,
2013-12-23 01:21:00,21.5,10.1,30.15,West,281,16.0,22.0,61,0.00,,---,0.00,VWS V14.01,2013-12-23 08:21:00,
2013-12-23 01:31:00,21.8,10.1,30.15,West,259,18.0,26.0,60,0.00,,---,0.00,VWS V14.01,2013-12-23 08:31:00,
2013-12-23 01:41:00,21.9,9.8,30.15,WSW,258,17.0,28.0,59,0.00,,---,0.00,VWS V14.01,2013-12-23 08:41:00,
2013-12-23 01:51:00,22.4,9.9,30.15,WSW,256,18.0,30.0,58,0.00,,---,0.00,VWS V14.01,2013-12-23 08:51:00,
2013-12-23 02:01:00,22.0,9.9,30.16,West,261,18.0,25.0,59,0.00,,---,0.00,VWS V14.01,2013-12-23 09:01:00,
2013-12-23 02:11:00,21.8,10.4,30.18,WSW,249,20.0,23.0,61,0.00,,---,0.00,VWS V14.01,2013-12-23 09:11:00,
2013-12-23 02:21:00,22.2,10.1,30.19,West,266,9.0,31.0,59,0.00,,---,0.00,VWS V14.01,2013-12-23 09:21:00,
2013-12-23 02:31:00,22.1,10.4,30.19,WSW,248,22.0,30.0,60,0.00,,---,0.00,VWS V14.01,2013-12-23 09:31:00,
2013-12-23 02:41:00,22.0,10.6,30.21,West,262,12.0,32.0,61,0.00,,---,0.00,VWS V14.01,2013-12-23 09:41:00,
2013-12-23 02:51:00,22.5,9.6,30.21,WSW,250,18.0,29.0,57,0.00,,---,0.00,VWS V14.01,2013-12-23 09:51:00,
2013-12-23 03:01:00,22.7,9.8,30.18,WSW,246,15.0,24.0,57,0.00,,---,0.00,VWS V14.01,2013-12-23 10:01:00,
2013-12-23 03:11:00,22.0,9.9,30.20,WSW,250,17.0,26.0,59,0.00,,---,0.00,VWS V14.01,2013-12-23 10:11:00,
2013-12-23 03:21:00,23.3,8.3,30.20,SW,233,12.0,21.0,52,0.00,,---,0.00,VWS V14.01,2013-12-23 10:21:00,
2013-12-23 03:31:00,23.1,8.5,30.20,West,269,13.0,17.0,53,0.00,,---,0.00,VWS V14.01,2013-12-23 10:31:00,
2013-12-23 03:41:00,22.7,9.0,30.21,WSW,254,9.0,19.0,55,0.00,,---,0.00,VWS V14.01,2013-12-23 10:41:00,
2013-12-23 03:51:00,22.8,7.4,30.21,WSW,252,12.0,15.0,51,0.00,,---,0.00,VWS V14.01,2013-12-23 10:51:00,
2013-12-23 04:01:00,23.2,7.8,30.21,WNW,285,10.0,18.0,51,0.00,,---,0.00,VWS V14.01,2013-12-23 11:01:00,
2013-12-23 04:11:00,19.2,6.9,30.25,WNW,288,6.0,10.0,58,0.00,,---,0.00,VWS V14.01,2013-12-23 11:11:00,
2013-12-23 04:21:00,17.8,6.6,30.27,WNW,288,5.0,7.0,61,0.00,,---,0.00,VWS V14.01,2013-12-23 11:21:00,
2013-12-23 04:31:00,19.7,7.3,30.25,WNW,288,0.0,5.0,58,0.00,,---,0.00,VWS V14.01,2013-12-23 11:31:00,
2013-12-23 04:41:00,20.9,7.3,30.23,West,280,6.0,12.0,55,0.00,,---,0.00,VWS V14.01,2013-12-23 11:41:00,
2013-12-23 04:51:00,22.7,7.7,30.19,SW,232,8.0,17.0,52,0.00,,---,0.00,VWS V14.01,2013-12-23 11:51:00,
2013-12-23 05:01:00,23.4,7.5,30.20,SW,222,18.0,24.0,50,0.00,,---,0.00,VWS V14.01,2013-12-23 12:01:00,
2013-12-23 05:11:00,23.5,7.2,30.20,SW,231,13.0,26.0,49,0.00,,---,0.00,VWS V14.01,2013-12-23 12:11:00,
2013-12-23 05:21:00,24.3,7.4,30.21,WSW,237,20.0,28.0,48,0.00,,---,0.00,VWS V14.01,2013-12-23 12:21:00,
2013-12-23 05:31:00,24.6,8.2,30.20,WSW,237,17.0,24.0,49,0.00,,---,0.00,VWS V14.01,2013-12-23 12:31:00,
2013-12-23 05:41:00,23.9,8.0,30.20,SW,233,27.0,27.0,50,0.00,,---,0.00,VWS V14.01,2013-12-23 12:41:00,
2013-12-23 05:51:00,24.1,6.3,30.20,WNW,302,17.0,31.0,46,0.00,,---,0.00,VWS V14.01,2013-12-23 12:51:00,
2013-12-23 06:01:00,24.5,6.7,30.22,West,264,10.0,27.0,46,0.00,,---,0.00,VWS V14.01,2013-12-23 13:01:00,
2013-12-23 06:11:00,24.7,6.4,30.22,SSW,205,17.0,33.0,45,0.00,,---,0.00,VWS V14.01,2013-12-23 13:11:00,
2013-12-23 06:21:00,21.3,5.6,30.24,ESE,122,11.0,22.0,50,0.00,,---,0.00,VWS V14.01,2013-12-23 13:21:00,
2013-12-23 06:31:00,19.3,5.8,30.28,SSE,161,6.0,16.0,55,0.00,,---,0.00,VWS V14.01,2013-12-23 13:31:00,
2013-12-23 06:41:00,21.4,5.7,30.24,SSE,152,8.0,21.0,50,0.00,,---,0.00,VWS V14.01,2013-12-23 13:41:00,
2013-12-23 06:51:00,19.8,5.8,30.26,SE,142,10.0,21.0,54,0.00,,---,0.00,VWS V14.01,2013-12-23 13:51:00,
2013-12-23 07:01:00,20.7,5.9,30.28,East,80,4.0,19.0,52,0.00,,---,0.00,VWS V14.01,2013-12-23 14:01:00,
2013-12-23 07:11:00,17.9,5.2,30.29,East,80,11.0,15.0,57,0.00,,---,0.00,VWS V14.01,2013-12-23 14:11:00,
2013-12-23 07:21:00,17.6,5.3,30.29,SE,136,12.0,21.0,58,0.00,,---,0.00,VWS V14.01,2013-12-23 14:21:00,
2013-12-23 07:31:00,19.8,5.4,30.26,SE,134,8.0,18.0,53,0.00,,---,0.00,VWS V14.01,2013-12-23 14:31:00,
2013-12-23 07:41:00,20.4,5.6,30.27,SE,131,11.0,18.0,52,0.00,,---,0.00,VWS V14.01,2013-12-23 14:41:00,
2013-12-23 07:51:00,22.0,5.8,30.26,SSE,157,12.0,24.0,49,0.00,,---,0.00,VWS V14.01,2013-12-23 14:51:00,
2013-12-23 08:01:00,22.0,5.8,30.29,SE,139,5.0,22.0,49,0.00,,---,0.00,VWS V14.01,2013-12-23 15:01:00,
2013-12-23 08:11:00,22.5,6.2,30.27,ESE,114,9.0,12.0,49,0.00,,---,0.00,VWS V14.01,2013-12-23 15:11:00,
2013-12-23 08:21:00,21.7,5.9,30.30,SE,127,15.0,18.0,50,0.00,,---,0.00,VWS V14.01,2013-12-23 15:21:00,
2013-12-23 08:31:00,22.6,6.8,30.30,SE,125,5.0,15.0,50,0.00,,---,0.00,VWS V14.01,2013-12-23 15:31:00,
2013-12-23 08:41:00,23.8,7.0,30.28,ENE,61,10.0,14.0,48,0.00,,---,0.00,VWS V14.01,2013-12-23 15:41:00,
2013-12-23 08:51:00,23.2,6.4,30.28,ESE,114,14.0,14.0,48,0.00,,---,0.00,VWS V14.01,2013-12-23 15:51:00,
2013-12-23 09:01:00,24.6,7.3,30.26,SE,138,11.0,18.0,47,0.00,,---,0.00,VWS V14.01,2013-12-23 16:01:00,
2013-12-23 09:11:00,26.2,7.3,30.27,SSE,151,9.0,16.0,44,0.00,,---,0.00,VWS V14.01,2013-12-23 16:11:00,
2013-12-23 09:21:00,26.0,8.1,30.28,SE,124,4.0,13.0,46,0.00,,---,0.00,VWS V14.01,2013-12-23 16:21:00,
2013-12-23 09:31:00,25.8,8.8,30.29,SSE,152,13.0,13.0,48,0.00,,---,0.00,VWS V14.01,2013-12-23 16:31:00,
2013-12-23 09:41:00,25.8,8.4,30.30,SSE,149,7.0,13.0,47,0.00,,---,0.00,VWS V14.01,2013-12-23 16:41:00,
2013-12-23 09:51:00,26.9,8.9,30.28,South,176,14.0,14.0,46,0.00,,---,0.00,VWS V14.01,2013-12-23 16:51:00,
2013-12-23 10:01:00,26.7,9.7,30.29,South,176,5.0,14.0,48,0.00,,---,0.00,VWS V14.01,2013-12-23 17:01:00,
2013-12-23 10:11:00,26.8,9.3,30.32,South,171,3.0,10.0,47,0.00,,---,0.00,VWS V14.01,2013-12-23 17:11:00,
2013-12-23 10:21:00,27.7,10.1,30.30,SSE,151,5.0,11.0,47,0.00,,---,0.00,VWS V14.01,2013-12-23 17:21:00,
2013-12-23 10:31:00,28.3,10.2,30.30,SSE,150,8.0,10.0,46,0.00,,---,0.00,VWS V14.01,2013-12-23 17:31:00,
2013-12-23 10:41:00,28.1,10.5,30.30,SSE,165,3.0,11.0,47,0.00,,---,0.00,VWS V14.01,2013-12-23 17:41:00,
2013-12-23 10:51:00,30.5,11.7,30.28,SE,126,6.0,9.0,45,0.00,,---,0.00,VWS V14.01,2013-12-23 17:51:00,
2013-12-23 11:01:00,29.3,11.1,30.31,SSE,157,2.0,7.0,46,0.00,,---,0.00,VWS V14.01,2013-12-23 18:01:00,
2013-12-23 11:11:00,31.1,10.2,30.27,SSE,152,4.0,6.0,41,0.00,,---,0.00,VWS V14.01,2013-12-23 18:11:00,
2013-12-23 11:21:00,31.3,10.3,30.27,SE,140,2.0,9.0,41,0.00,,---,0.00,VWS V14.01,2013-12-23 18:21:00,
2013-12-23 11:31:00,31.7,10.1,30.26,SE,140,2.0,6.0,40,0.00,,---,0.00,VWS V14.01,2013-12-23 18:31:00,
2013-12-23 11:41:00,31.9,10.9,30.26,East,93,0.0,8.0,41,0.00,,---,0.00,VWS V14.01,2013-12-23 18:41:00,
2013-12-23 11:51:00,32.8,10.6,30.24,East,90,0.0,7.0,39,0.00,,---,0.00,VWS V14.01,2013-12-23 18:51:00,
2013-12-23 12:01:00,33.1,10.9,30.24,East,79,3.0,7.0,39,0.00,,---,0.00,VWS V14.01,2013-12-23 19:01:00,
2013-12-23 12:11:00,33.7,11.4,30.24,NE,38,0.0,10.0,39,0.00,,---,0.00,VWS V14.01,2013-12-23 19:11:00,
2013-12-23 12:21:00,32.7,12.2,30.25,NNE,28,1.0,21.0,42,0.00,,---,0.00,VWS V14.01,2013-12-23 19:21:00,
2013-12-23 12:31:00,32.7,12.2,30.24,NNE,24,0.0,10.0,42,0.00,,---,0.00,VWS V14.01,2013-12-23 19:31:00,
2013-12-23 12:41:00,32.6,11.5,30.24,NNE,15,0.0,27.0,41,0.00,,---,0.00,VWS V14.01,2013-12-23 19:41:00,
2013-12-23 12:51:00,33.5,12.3,30.23,ESE,122,0.0,14.0,41,0.00,,---,0.00,VWS V14.01,2013-12-23 19:51:00,
2013-12-23 13:01:00,34.4,13.1,30.22,ESE,114,4.0,15.0,41,0.00,,---,0.00,VWS V14.01,2013-12-23 20:01:00,
2013-12-23 13:11:00,34.4,13.1,30.22,NE,36,3.0,12.0,41,0.00,,---,0.00,VWS V14.01,2013-12-23 20:11:00,
2013-12-23 13:21:00,32.8,15.3,30.24,NNW,344,19.0,24.0,48,0.00,,---,0.00,VWS V14.01,2013-12-23 20:21:00,
2013-12-23 13:31:00,31.5,14.6,30.25,NW,307,13.0,25.0,49,0.00,,---,0.00,VWS V14.01,2013-12-23 20:31:00,
2013-12-23 13:41:00,32.0,14.1,30.23,NNE,13,10.0,31.0,47,0.00,,---,0.00,VWS V14.01,2013-12-23 20:41:00,
2013-12-23 13:51:00,32.2,13.8,30.24,NNW,340,14.0,32.0,46,0.00,,---,0.00,VWS V14.01,2013-12-23 20:51:00,
2013-12-23 14:01:00,31.9,14.9,30.24,WNW,302,22.0,31.0,49,0.00,,---,0.00,VWS V14.01,2013-12-23 21:01:00,
2013-12-23 14:11:00,32.4,15.4,30.24,NNW,346,12.0,26.0,49,0.00,,---,0.00,VWS V14.01,2013-12-23 21:11:00,
2013-12-23 14:21:00,33.0,14.5,30.22,North,355,6.0,29.0,46,0.00,,---,0.00,VWS V14.01,2013-12-23 21:21:00,
2013-12-23 14:31:00,33.5,15.4,30.22,North,5,6.0,27.0,47,0.00,,---,0.00,VWS V14.01,2013-12-23 21:31:00,
2013-12-23 14:41:00,33.3,16.2,30.22,North,360,17.0,20.0,49,0.00,,---,0.00,VWS V14.01,2013-12-23 21:41:00,
2013-12-23 14:51:00,32.8,16.2,30.22,North,5,6.0,27.0,50,0.00,,---,0.00,VWS V14.01,2013-12-23 21:51:00,
2013-12-23 15:01:00,33.1,16.0,30.22,NNW,333,10.0,26.0,49,0.00,,---,0.00,VWS V14.01,2013-12-23 22:01:00,
2013-12-23 15:11:00,32.2,16.1,30.24,NW,315,16.0,20.0,51,0.00,,---,0.00,VWS V14.01,2013-12-23 22:11:00,
2013-12-23 15:21:00,32.6,16.5,30.22,North,360,22.0,29.0,51,0.00,,---,0.00,VWS V14.01,2013-12-23 22:21:00,
2013-12-23 15:31:00,32.3,15.8,30.24,NW,325,17.0,26.0,50,0.00,,---,0.00,VWS V14.01,2013-12-23 22:31:00,
2013-12-23 15:41:00,31.9,16.3,30.23,NNW,340,24.0,26.0,52,0.00,,---,0.00,VWS V14.01,2013-12-23 22:41:00,
2013-12-23 15:51:00,31.7,16.1,30.25,NNW,342,12.0,25.0,52,0.00,,---,0.00,VWS V14.01,2013-12-23 22:51:00,
2013-12-23 16:01:00,31.4,16.3,30.25,North,350,12.0,28.0,53,0.00,,---,0.00,VWS V14.01,2013-12-23 23:01:00,
2013-12-23 16:11:00,31.1,16.0,30.25,NNE,13,22.0,24.0,53,0.00,,---,0.00,VWS V14.01,2013-12-23 23:11:00,
2013-12-23 16:21:00,30.7,15.6,30.24,North,355,11.0,25.0,53,0.00,,---,0.00,VWS V14.01,2013-12-23 23:21:00,
2013-12-23 16:31:00,30.7,16.0,30.24,NNW,347,11.0,19.0,54,0.00,,---,0.00,VWS V14.01,2013-12-23 23:31:00,
2013-12-23 16:41:00,31.2,15.6,30.24,North,11,15.0,20.0,52,0.00,,---,0.00,VWS V14.01,2013-12-23 23:41:00,
2013-12-23 16:51:00,30.8,15.7,30.25,NW,318,11.0,30.0,53,0.00,,---,0.00,VWS V14.01,2013-12-23 23:51:00,
2013-12-23 17:01:00,30.4,15.8,30.27,NNW,334,17.0,26.0,54,0.00,,---,0.00,VWS V14.01,2013-12-24 00:01:00,
2013-12-23 17:11:00,30.7,15.6,30.24,NW,318,14.0,30.0,53,0.00,,---,0.00,VWS V14.01,2013-12-24 00:11:00,
2013-12-23 17:21:00,29.2,15.1,30.28,NW,309,12.0,17.0,55,0.00,,---,0.00,VWS V14.01,2013-12-24 00:21:00,
2013-12-23 17:31:00,31.5,15.5,30.26,NNW,334,17.0,24.0,51,0.00,,---,0.00,VWS V14.01,2013-12-24 00:31:00,
2013-12-23 17:41:00,30.0,15.4,30.28,NNW,327,10.0,17.0,54,0.00,,---,0.00,VWS V14.01,2013-12-24 00:41:00,
2013-12-23 17:51:00,30.2,15.1,30.28,North,360,9.0,22.0,53,0.00,,---,0.00,VWS V14.01,2013-12-24 00:51:00,
2013-12-23 18:01:00,29.8,15.2,30.28,North,360,1.0,9.0,54,0.00,,---,0.00,VWS V14.01,2013-12-24 01:01:00,
2013-12-23 18:11:00,26.2,13.1,30.37,West,263,3.0,11.0,57,0.00,,---,0.00,VWS V14.01,2013-12-24 01:11:00,
2013-12-23 18:21:00,25.4,13.1,30.37,West,263,0.0,5.0,59,0.00,,---,0.00,VWS V14.01,2013-12-24 01:21:00,
2013-12-23 18:31:00,25.9,13.2,30.37,WSW,251,8.0,10.0,58,0.00,,---,0.00,VWS V14.01,2013-12-24 01:31:00,
2013-12-23 18:41:00,24.5,12.6,30.37,SW,225,2.0,9.0,60,0.00,,---,0.00,VWS V14.01,2013-12-24 01:41:00,
2013-12-23 18:51:00,23.6,12.1,30.40,SW,221,0.0,8.0,61,0.00,,---,0.00,VWS V14.01,2013-12-24 01:51:00,
2013-12-23 19:01:00,23.4,12.3,30.40,SW,221,0.0,0.0,62,0.00,,---,0.00,VWS V14.01,2013-12-24 02:01:00,
2013-12-23 19:11:00,23.6,12.1,30.40,West,262,7.0,13.0,61,0.00,,---,0.00,VWS V14.01,2013-12-24 02:11:00,
2013-12-23 19:21:00,24.9,12.2,30.38,South,182,4.0,13.0,58,0.00,,---,0.00,VWS V14.01,2013-12-24 02:21:00,
2013-12-23 19:31:00,23.4,11.9,30.39,South,182,0.0,4.0,61,0.00,,---,0.00,VWS V14.01,2013-12-24 02:31:00,
2013-12-23 19:41:00,23.0,11.9,30.40,South,182,0.0,0.0,62,0.00,,---,0.00,VWS V14.01,2013-12-24 02:41:00,
2013-12-23 19:51:00,23.3,11.9,30.40,WSW,240,0.0,12.0,61,0.00,,---,0.00,VWS V14.01,2013-12-24 02:51:00,
2013-12-23 20:01:00,24.0,12.5,30.38,WSW,240,0.0,1.0,61,0.00,,---,0.00,VWS V14.01,2013-12-24 03:01:00,
2013-12-23 20:11:00,24.7,12.4,30.34,WSW,240,0.0,0.0,59,0.00,,---,0.00,VWS V14.01,2013-12-24 03:11:00,
2013-12-23 20:21:00,26.8,14.4,30.32,WSW,251,4.0,10.0,59,0.00,,---,0.00,VWS V14.01,2013-12-24 03:21:00,
2013-12-23 20:31:00,27.2,14.4,30.32,WNW,282,9.0,12.0,58,0.00,,---,0.00,VWS V14.01,2013-12-24 03:31:00,
2013-12-23 20:41:00,25.8,13.1,30.34,WNW,282,4.0,10.0,58,0.00,,---,0.00,VWS V14.01,2013-12-24 03:41:00,
2013-12-23 20:51:00,26.6,13.0,30.31,WSW,250,5.0,13.0,56,0.00,,---,0.00,VWS V14.01,2013-12-24 03:51:00,
2013-12-23 21:01:00,23.5,12.4,30.36,WSW,244,0.0,9.0,62,0.00,,---,0.00,VWS V14.01,2013-12-24 04:01:00,
2013-12-23 21:11:00,23.7,13.0,30.34,SW,222,0.0,0.0,63,0.00,,---,0.00,VWS V14.01,2013-12-24 04:11:00,
2013-12-23 21:21:00,26.3,13.9,30.32,WNW,292,5.0,11.0,59,0.00,,---,0.00,VWS V14.01,2013-12-24 04:21:00,
2013-12-23 21:31:00,27.2,14.0,30.30,West,275,6.0,11.0,57,0.00,,---,0.00,VWS V14.01,2013-12-24 04:31:00,
2013-12-23 21:41:00,22.7,11.6,30.33,SSW,202,0.0,11.0,62,0.00,,---,0.00,VWS V14.01,2013-12-24 04:41:00,
2013-12-23 21:51:00,21.6,11.7,30.35,West,264,0.0,11.0,65,0.00,,---,0.00,VWS V14.01,2013-12-24 04:51:00,
2013-12-23 22:01:00,22.6,12.3,30.34,South,191,0.0,10.0,64,0.00,,---,0.00,VWS V14.01,2013-12-24 05:01:00,
2013-12-23 22:11:00,23.8,13.1,30.31,SE,140,0.0,6.0,63,0.00,,---,0.00,VWS V14.01,2013-12-24 05:11:00,
2013-12-23 22:21:00,22.2,11.5,30.33,SSW,198,9.0,13.0,63,0.00,,---,0.00,VWS V14.01,2013-12-24 05:21:00,
2013-12-23 22:31:00,21.7,11.8,30.32,SSE,159,0.0,13.0,65,0.00,,---,0.00,VWS V14.01,2013-12-24 05:31:00,
2013-12-23 22:41:00,22.7,12.7,30.31,West,267,0.0,10.0,65,0.00,,---,0.00,VWS V14.01,2013-12-24 05:41:00,
2013-12-23 22:51:00,22.2,12.2,30.33,SSW,198,0.0,10.0,65,0.00,,---,0.00,VWS V14.01,2013-12-24 05:51:00,
2013-12-23 23:01:00,23.6,14.3,30.30,WSW,245,9.0,14.0,67,0.00,,---,0.00,VWS V14.01,2013-12-24 06:01:00,
2013-12-23 23:11:00,24.5,13.0,30.23,SE,141,3.0,17.0,61,0.00,,---,0.00,VWS V14.01,2013-12-24 06:11:00,
2013-12-23 23:21:00,23.0,12.6,30.26,ENE,78,5.0,11.0,64,0.00,,---,0.00,VWS V14.01,2013-12-24 06:21:00,
2013-12-23 23:33:00,25.7,15.9,30.26,West,276,0.0,12.0,66,0.00,,---,0.00,VWS V14.01,2013-12-24 06:33:00,
2013-12-23 23:41:00,26.5,13.3,30.22,South,180,5.0,17.0,57,0.00,,---,0.00,VWS V14.01,2013-12-24 06:41:00,
2013-12-23 23:51:00,28.3,16.6,30.21,WNW,291,15.0,19.0,61,0.00,,---,0.00,VWS V14.01,2013-12-24 06:51:00,